Time;durP1;ratioP1;P1;durP2;ratioP2;P2;SDS_P1;SDS_P2;PMS_P1;PMS_P2;Temp;Humidity;BMP_temperature;BMP_pressure;BME280_temperature;BME280_humidity;BME280_pressure;Samples;Min_cycle;Max_cycle;Signal;HPM_P1;HPM_P2
2024/04/04 00:01:00;;;;;;;40.90;7.75;;;13.00;99.90;;;12.50;100.00;100450.91;4168351;28;20468;-61
2024/04/04 00:03:00;;;;;;;34.42;7.00;;;13.00;99.90;;;12.48;100.00;100450.28;4168583;28;20021;-61
2024/04/04 00:05:03;;;;;;;40.58;7.25;;;13.00;99.90;;;12.49;100.00;100457.19;4180332;28;20037;-62
2024/04/04 00:07:04;;;;;;;27.95;5.88;;;13.00;99.90;;;12.58;100.00;100453.50;4167730;28;20087;-62
2024/04/04 00:09:05;;;;;;;36.60;7.32;;;13.10;99.90;;;12.52;100.00;100448.91;4168605;28;20484;-61
2024/04/04 00:11:17;;;;;;;43.70;7.57;;;13.10;99.90;;;12.54;100.00;100439.81;4168553;28;20102;-61
2024/04/04 00:13:18;;;;;;;38.15;6.18;;;13.10;99.90;;;12.54;100.00;100447.75;4179914;28;20434;-62
2024/04/04 00:15:19;;;;;;;39.92;8.13;;;13.10;99.90;;;12.55;100.00;100433.50;4171794;28;20059;-61
2024/04/04 00:17:20;;;;;;;30.17;6.03;;;13.10;99.90;;;12.51;100.00;100436.69;4152185;28;20026;-62
2024/04/04 00:19:21;;;;;;;29.38;6.32;;;13.00;99.90;;;12.53;100.00;100442.63;4152127;28;20029;-61
2024/04/04 00:21:22;;;;;;;31.17;6.93;;;13.10;99.90;;;12.53;100.00;100438.16;4151960;28;20030;-62
2024/04/04 00:23:23;;;;;;;31.52;8.13;;;13.10;99.90;;;12.49;100.00;100446.59;4152149;28;20026;-62
2024/04/04 00:25:24;;;;;;;32.10;5.38;;;13.10;99.90;;;12.54;100.00;100433.69;4167468;28;20060;-61
2024/04/04 00:27:24;;;;;;;26.60;5.70;;;13.10;99.90;;;12.53;100.00;100446.09;4152103;28;20030;-61
2024/04/04 00:29:25;;;;;;;30.10;5.30;;;13.10;99.90;;;12.54;100.00;100439.81;4155091;28;20030;-62
2024/04/04 00:31:26;;;;;;;38.88;7.15;;;13.10;99.90;;;12.54;100.00;100439.00;4168175;28;20488;-61
2024/04/04 00:33:27;;;;;;;38.40;8.07;;;13.10;99.90;;;12.55;100.00;100452.03;4169826;28;20040;-61
2024/04/04 00:35:28;;;;;;;33.63;7.53;;;13.10;99.90;;;12.54;100.00;100441.63;4167783;28;20034;-61
2024/04/04 00:37:29;;;;;;;26.20;5.90;;;13.00;99.90;;;12.54;100.00;100436.34;4155023;28;20022;-62
2024/04/04 00:39:29;;;;;;;28.30;5.97;;;13.00;99.90;;;12.51;100.00;100434.88;4153586;28;20034;-61
2024/04/04 00:41:31;;;;;;;32.15;5.25;;;13.00;99.90;;;12.50;100.00;100440.31;4163779;28;20503;-61
2024/04/04 00:43:32;;;;;;;27.77;4.80;;;13.00;99.90;;;12.48;100.00;100434.41;4154960;28;20036;-61
2024/04/04 00:45:35;;;;;;;25.13;4.05;;;13.00;99.90;;;12.44;100.00;100425.16;4161782;28;20589;-62
2024/04/04 00:47:36;;;;;;;23.00;4.95;;;13.00;99.90;;;12.46;100.00;100436.38;4155926;28;20060;-62
2024/04/04 00:49:37;;;;;;;22.70;4.10;;;13.00;99.90;;;12.46;100.00;100429.25;4164413;28;20030;-61
2024/04/04 00:51:39;;;;;;;26.13;4.65;;;13.00;99.90;;;12.45;100.00;100434.75;4153686;28;20034;-61
2024/04/04 00:53:41;;;;;;;25.45;4.53;;;13.00;99.90;;;12.46;100.00;100409.91;4154635;28;20021;-61
2024/04/04 00:55:42;;;;;;;26.13;4.45;;;13.00;99.90;;;12.49;100.00;100417.50;4170665;28;20036;-61
2024/04/04 00:57:44;;;;;;;24.15;4.85;;;13.00;99.90;;;12.54;100.00;100428.41;4169788;28;20025;-61
2024/04/04 00:59:46;;;;;;;25.58;6.15;;;13.10;99.90;;;12.49;100.00;100428.91;4154875;28;20026;-61
2024/04/04 01:01:47;;;;;;;31.58;6.20;;;13.00;99.90;;;12.46;100.00;100431.09;4154427;28;20033;-61
2024/04/04 01:03:47;;;;;;;33.83;6.70;;;13.00;99.90;;;12.49;100.00;100423.63;4156156;28;20022;-61
2024/04/04 01:05:48;;;;;;;26.55;4.38;;;13.00;99.90;;;12.54;100.00;100428.41;4176249;28;20030;-61
2024/04/04 01:07:49;;;;;;;26.48;4.93;;;13.00;99.90;;;12.48;100.00;100429.94;4154559;28;20057;-61
2024/04/04 01:09:50;;;;;;;26.38;4.65;;;13.00;99.90;;;12.51;100.00;100411.06;4153277;28;20030;-61
2024/04/04 01:11:51;;;;;;;20.80;4.22;;;13.00;99.90;;;12.49;100.00;100417.50;4154639;28;20030;-62
2024/04/04 01:13:52;;;;;;;23.20;5.07;;;13.00;99.90;;;12.44;100.00;100396.88;4157200;28;20026;-61
2024/04/04 01:15:53;;;;;;;20.00;4.50;;;13.00;99.90;;;12.45;100.00;100413.59;4170276;28;20490;-61
2024/04/04 01:17:53;;;;;;;22.40;4.72;;;13.00;99.90;;;12.47;100.00;100406.28;4154483;28;20404;-62
2024/04/04 01:19:54;;;;;;;18.60;4.43;;;13.00;99.90;;;12.48;100.00;100416.72;4154241;28;20022;-62
2024/04/04 01:21:55;;;;;;;25.40;4.60;;;13.00;99.90;;;12.44;100.00;100411.94;4154552;28;20053;-62
2024/04/04 01:23:56;;;;;;;19.38;3.78;;;13.00;99.90;;;12.43;100.00;100405.81;4157814;28;20087;-61
2024/04/04 01:25:57;;;;;;;21.25;3.95;;;13.00;99.90;;;12.43;100.00;100403.16;4164045;28;20038;-61
2024/04/04 01:27:58;;;;;;;21.70;4.47;;;13.00;99.90;;;12.40;100.00;100402.69;4154116;28;20026;-61
2024/04/04 01:29:59;;;;;;;16.73;4.47;;;12.90;99.90;;;12.41;100.00;100369.94;4154119;28;20033;-61
2024/04/04 01:32:00;;;;;;;23.33;4.38;;;12.90;99.90;;;12.43;100.00;100412.91;4153074;28;20416;-61
2024/04/04 01:34:01;;;;;;;18.88;4.05;;;13.00;99.90;;;12.43;100.00;100399.69;4156348;28;20404;-61
2024/04/04 01:36:03;;;;;;;18.80;4.55;;;12.90;99.90;;;12.45;100.00;100395.91;4157732;28;20049;-61
2024/04/04 01:38:04;;;;;;;25.83;5.82;;;12.90;99.90;;;12.42;100.00;100392.78;4152859;28;20120;-61
2024/04/04 01:40:08;;;;;;;20.52;3.70;;;13.00;99.90;;;12.41;100.00;100397.22;4154077;28;20025;-61
2024/04/04 01:42:09;;;;;;;16.55;3.20;;;12.90;99.90;;;12.42;100.00;100382.19;4153986;28;20014;-62
2024/04/04 01:44:10;;;;;;;18.77;3.83;;;13.00;99.90;;;12.37;100.00;100393.28;4153456;28;20037;-61
2024/04/04 01:46:11;;;;;;;17.48;4.43;;;12.90;99.90;;;12.37;100.00;100389.81;4153606;28;20030;-62
2024/04/04 01:48:11;;;;;;;15.00;3.33;;;12.90;99.90;;;12.41;100.00;100385.81;4161254;28;20029;-61
2024/04/04 01:50:12;;;;;;;15.23;3.50;;;12.90;99.90;;;12.37;100.00;100381.88;4159740;28;20404;-62
2024/04/04 01:52:13;;;;;;;19.33;3.95;;;12.90;99.90;;;12.39;100.00;100378.09;4153666;28;20057;-61
2024/04/04 01:54:15;;;;;;;16.50;3.03;;;12.90;99.90;;;12.35;100.00;100392.66;4153955;28;20026;-61
2024/04/04 01:56:16;;;;;;;20.13;3.58;;;12.90;99.90;;;12.37;100.00;100395.94;4160970;28;20037;-62
2024/04/04 01:58:16;;;;;;;16.23;3.65;;;12.90;99.90;;;12.43;100.00;100400.50;4170226;28;20021;-62
2024/04/04 02:00:17;;;;;;;16.88;2.70;;;12.90;99.90;;;12.42;100.00;100398.06;4169869;28;20026;-61
2024/04/04 02:02:18;;;;;;;17.23;3.10;;;12.90;99.90;;;12.45;100.00;100403.00;4168997;28;20053;-61
2024/04/04 02:04:19;;;;;;;18.33;3.22;;;13.00;99.90;;;12.42;100.00;100395.41;4170138;28;20075;-62
2024/04/04 02:06:20;;;;;;;19.08;2.78;;;13.00;99.90;;;12.40;100.00;100402.69;4170140;28;20044;-62
2024/04/04 02:08:21;;;;;;;19.92;3.75;;;12.90;99.90;;;12.45;100.00;100418.88;4169958;28;20029;-62
2024/04/04 02:10:21;;;;;;;24.67;4.80;;;13.00;99.90;;;12.40;100.00;100400.03;4178643;28;20072;-62
2024/04/04 02:12:22;;;;;;;22.23;5.32;;;13.00;99.90;;;12.43;100.00;100411.09;4153805;28;20030;-61
2024/04/04 02:14:23;;;;;;;29.92;5.28;;;13.00;99.90;;;12.41;100.00;100401.69;4153631;28;20037;-62
2024/04/04 02:16:24;;;;;;;22.13;4.18;;;13.00;99.90;;;12.46;100.00;100409.91;4151919;28;20034;-62
2024/04/04 02:18:25;;;;;;;15.77;4.15;;;13.00;99.90;;;12.40;100.00;100427.31;4153351;28;20030;-61
2024/04/04 02:20:26;;;;;;;15.18;3.22;;;13.00;99.90;;;12.42;100.00;100398.91;4153509;28;20040;-61
2024/04/04 02:22:26;;;;;;;15.77;3.30;;;13.00;99.90;;;12.37;100.00;100409.16;4168515;28;20028;-61
2024/04/04 02:24:27;;;;;;;12.63;2.58;;;12.90;99.90;;;12.39;100.00;100412.47;4153392;28;20363;-61
2024/04/04 02:26:28;;;;;;;18.20;4.25;;;12.90;99.90;;;12.39;100.00;100401.88;4153237;28;20404;-61
2024/04/04 02:28:29;;;;;;;17.70;5.50;;;12.90;99.90;;;12.43;100.00;100410.28;4153573;28;20123;-61
2024/04/04 02:30:30;;;;;;;24.15;4.68;;;12.90;99.90;;;12.41;100.00;100397.22;4153147;28;20068;-61
2024/04/04 02:32:31;;;;;;;23.38;4.50;;;12.90;99.90;;;12.41;100.00;100402.53;4153281;28;20032;-61
2024/04/04 02:34:32;;;;;;;30.23;5.55;;;12.90;99.90;;;12.41;100.00;100404.34;4165474;28;20096;-61
2024/04/04 02:36:34;;;;;;;31.92;7.03;;;13.00;99.90;;;12.36;100.00;100414.63;4169615;28;20083;-61
2024/04/04 02:38:36;;;;;;;29.65;6.15;;;12.90;99.90;;;12.34;100.00;100412.16;4169525;28;20100;-62
2024/04/04 02:40:37;;;;;;;29.60;5.47;;;12.90;99.90;;;12.33;100.00;100405.22;4169506;28;20029;-62
2024/04/04 02:42:38;;;;;;;29.63;5.78;;;12.90;99.90;;;12.28;100.00;100401.44;4169336;28;20029;-61
2024/04/04 02:44:40;;;;;;;36.25;6.38;;;12.90;99.90;;;12.26;100.00;100398.16;4168402;28;20183;-61
2024/04/04 02:46:43;;;;;;;36.70;6.95;;;12.90;99.90;;;12.27;100.00;100405.09;4169130;28;20049;-62
2024/04/04 02:48:45;;;;;;;30.17;8.05;;;12.90;99.90;;;12.24;100.00;100405.47;4169387;28;20029;-62
2024/04/04 02:50:56;;;;;;;34.33;5.22;;;12.80;99.90;;;12.25;100.00;100396.50;4169162;28;20026;-61
2024/04/04 02:52:57;;;;;;;33.45;6.28;;;12.80;99.90;;;12.29;100.00;100406.56;4169219;28;20044;-62
2024/04/04 02:54:58;;;;;;;31.52;4.95;;;12.80;99.90;;;12.29;100.00;100397.81;4169688;28;20021;-61
2024/04/04 02:56:59;;;;;;;33.60;5.20;;;12.80;99.90;;;12.27;100.00;100387.41;4168701;28;20527;-61
2024/04/04 02:59:00;;;;;;;30.00;6.22;;;12.80;99.90;;;12.19;100.00;100383.00;4169220;28;20061;-62
2024/04/04 03:01:04;;;;;;;30.45;5.53;;;12.80;99.90;;;12.26;100.00;100384.94;4169227;28;20097;-61
2024/04/04 03:03:05;;;;;;;26.30;4.97;;;12.80;99.90;;;12.31;100.00;100401.09;4176152;28;20060;-61
2024/04/04 03:05:06;;;;;;;23.25;5.32;;;12.80;99.90;;;12.27;100.00;100389.25;4174216;28;20534;-62
2024/04/04 03:07:07;;;;;;;31.98;5.93;;;12.90;99.90;;;12.27;100.00;100387.41;4176843;28;20513;-62
2024/04/04 03:09:09;;;;;;;30.63;5.55;;;12.90;99.90;;;12.25;100.00;100401.78;4170134;28;20061;-62
2024/04/04 03:11:10;;;;;;;33.70;6.18;;;12.90;99.90;;;12.31;100.00;100412.50;4152701;28;20026;-61
2024/04/04 03:13:10;;;;;;;38.10;5.00;;;12.90;99.90;;;12.29;100.00;100397.81;4152648;28;20026;-62
2024/04/04 03:15:11;;;;;;;37.20;6.38;;;12.90;99.90;;;12.37;100.00;100413.63;4152576;28;20029;-62
2024/04/04 03:17:12;;;;;;;37.45;7.95;;;12.90;99.90;;;12.31;100.00;100406.38;4152698;28;20038;-62
2024/04/04 03:19:13;;;;;;;30.95;7.07;;;12.90;99.90;;;12.48;100.00;100413.22;4151431;28;20038;-62
2024/04/04 03:21:14;;;;;;;57.22;10.13;;;12.90;99.90;;;12.40;100.00;100415.91;4152558;28;20022;-61
2024/04/04 03:23:15;;;;;;;47.85;9.02;;;12.90;99.90;;;12.39;100.00;100419.56;4152738;28;20025;-61
2024/04/04 03:25:16;;;;;;;45.00;9.25;;;12.90;99.90;;;12.43;100.00;100408.47;4151291;28;20030;-61
2024/04/04 03:27:16;;;;;;;57.92;9.52;;;13.00;99.90;;;12.46;100.00;100423.16;4152259;28;20501;-62
2024/04/04 03:29:17;;;;;;;46.33;8.48;;;13.00;99.90;;;12.48;100.00;100408.78;4152370;28;20025;-61
2024/04/04 03:31:18;;;;;;;51.25;9.23;;;13.00;99.90;;;12.45;100.00;100414.41;4151011;28;20116;-61
2024/04/04 03:33:19;;;;;;;42.58;8.75;;;13.00;99.90;;;12.52;100.00;100414.50;4152490;28;20081;-61
2024/04/04 03:35:20;;;;;;;56.03;9.50;;;13.10;99.90;;;12.50;100.00;100419.16;4159120;28;20029;-62
2024/04/04 03:37:21;;;;;;;58.50;9.90;;;13.10;99.90;;;12.49;100.00;100412.22;4161144;28;20025;-61
2024/04/04 03:39:22;;;;;;;51.30;10.68;;;13.10;99.90;;;12.47;100.00;100422.16;4152276;28;20058;-62
2024/04/04 03:41:22;;;;;;;61.15;10.50;;;13.10;99.90;;;12.46;100.00;100413.41;4152434;28;20033;-62
2024/04/04 03:43:23;;;;;;;44.78;8.75;;;13.10;99.90;;;12.49;100.00;100422.78;4152382;28;20408;-61
2024/04/04 03:45:24;;;;;;;48.03;10.23;;;13.10;99.90;;;12.50;100.00;100412.06;4152242;28;20396;-62
2024/04/04 03:47:25;;;;;;;59.55;9.18;;;13.10;99.90;;;12.51;100.00;100412.88;4153044;28;20053;-61
2024/04/04 03:49:26;;;;;;;61.83;9.20;;;13.10;99.90;;;12.56;100.00;100413.16;4164382;28;20033;-62
2024/04/04 03:51:27;;;;;;;47.78;9.82;;;13.10;99.90;;;12.56;100.00;100411.34;4152332;28;20034;-61
2024/04/04 03:53:27;;;;;;;41.95;9.63;;;13.10;99.90;;;12.51;100.00;100419.00;4152138;28;20030;-61
2024/04/04 03:55:28;;;;;;;61.40;10.32;;;13.10;99.90;;;12.61;100.00;100424.88;4164438;28;20550;-61
2024/04/04 03:57:29;;;;;;;45.78;8.55;;;13.20;99.90;;;12.54;100.00;100425.75;4168836;28;20064;-61
2024/04/04 03:59:30;;;;;;;54.55;10.25;;;13.20;99.90;;;12.58;100.00;100419.09;4168666;28;20033;-61
2024/04/04 04:01:32;;;;;;;60.22;11.77;;;13.20;99.90;;;12.54;100.00;100412.53;4168315;28;20033;-62
2024/04/04 04:03:33;;;;;;;57.05;10.63;;;13.20;99.90;;;12.54;100.00;100413.34;4168333;28;20032;-61
2024/04/04 04:05:35;;;;;;;63.55;11.23;;;13.20;99.90;;;12.53;100.00;100432.03;4168612;28;20028;-61
2024/04/04 04:07:36;;;;;;;51.17;9.43;;;13.20;99.90;;;12.55;100.00;100425.56;4170120;28;20476;-61
2024/04/04 04:09:37;;;;;;;50.13;9.63;;;13.20;99.90;;;12.63;100.00;100422.06;4171869;28;20060;-61
2024/04/04 04:11:37;;;;;;;54.97;11.23;;;13.20;99.90;;;12.57;100.00;100423.56;4187003;28;20025;-61
2024/04/04 04:13:38;;;;;;;45.33;10.15;;;13.20;99.90;;;12.55;100.00;100419.44;4170695;28;20033;-62
2024/04/04 04:15:39;;;;;;;62.60;10.48;;;13.20;99.90;;;12.55;100.00;100422.09;4170376;28;20034;-62
2024/04/04 04:17:40;;;;;;;47.13;10.32;;;13.20;99.90;;;12.61;100.00;100432.81;4171770;28;20116;-61
2024/04/04 04:19:41;;;;;;;56.40;10.68;;;13.20;99.90;;;12.57;100.00;100433.34;4159828;28;20516;-62
2024/04/04 04:21:42;;;;;;;41.03;9.52;;;13.20;99.90;;;12.62;100.00;100425.69;4155387;28;20030;-62
2024/04/04 04:23:45;;;;;;;51.03;10.57;;;13.20;99.90;;;12.67;100.00;100429.44;4155273;28;20026;-61
2024/04/04 04:25:47;;;;;;;59.75;11.35;;;13.20;99.90;;;12.63;100.00;100432.63;4153933;28;20030;-62
2024/04/04 04:27:48;;;;;;;49.25;9.45;;;13.20;99.90;;;12.60;100.00;100431.16;4155132;28;20081;-62
2024/04/04 04:29:49;;;;;;;52.33;10.07;;;13.20;99.90;;;12.66;100.00;100433.09;4155043;28;20500;-61
2024/04/04 04:31:54;;;;;;;48.90;8.75;;;13.20;99.90;;;12.63;100.00;100430.00;4155309;28;20054;-62
2024/04/04 04:33:58;;;;;;;50.53;8.93;;;13.20;99.90;;;12.66;100.00;100432.28;4154357;28;20033;-62
2024/04/04 04:35:59;;;;;;;58.97;10.55;;;13.20;99.90;;;12.62;100.00;100434.47;4175141;28;20040;-62
2024/04/04 04:38:00;;;;;;;56.70;11.45;;;13.20;99.90;;;12.60;100.00;100430.34;4155884;28;20038;-62
2024/04/04 04:40:01;;;;;;;53.50;10.52;;;13.20;99.90;;;12.66;100.00;100441.03;4153868;28;20025;-62
2024/04/04 04:42:02;;;;;;;59.90;10.27;;;13.20;99.90;;;12.67;100.00;100433.91;4154976;28;20060;-62
2024/04/04 04:44:03;;;;;;;56.20;11.98;;;13.20;99.90;;;12.58;100.00;100440.25;4154878;28;20061;-62
2024/04/04 04:46:05;;;;;;;42.20;7.75;;;13.20;99.90;;;12.57;100.00;100441.28;4164204;28;20026;-62
2024/04/04 04:48:06;;;;;;;58.15;10.48;;;13.20;99.90;;;12.57;100.00;100442.06;4161538;28;20025;-61
2024/04/04 04:50:08;;;;;;;55.58;9.50;;;13.20;99.90;;;12.59;100.00;100421.56;4178876;28;20028;-61
2024/04/04 04:52:09;;;;;;;55.67;10.85;;;13.20;99.90;;;12.59;100.00;100436.63;4161609;28;20069;-61
2024/04/04 04:54:10;;;;;;;56.97;10.63;;;13.20;99.90;;;12.58;100.00;100437.63;4156143;28;20022;-62
2024/04/04 04:56:11;;;;;;;51.05;10.63;;;13.20;99.90;;;12.59;100.00;100436.63;4171200;28;20037;-61
2024/04/04 04:58:11;;;;;;;55.08;9.55;;;13.20;99.90;;;12.59;100.00;100431.34;4171180;28;20028;-61
2024/04/04 05:00:14;;;;;;;58.13;10.10;;;13.20;99.90;;;12.57;100.00;100443.94;4180147;28;20029;-62
2024/04/04 05:02:16;;;;;;;54.80;9.00;;;13.20;99.90;;;12.56;100.00;100442.28;4155062;28;20022;-61
2024/04/04 05:04:17;;;;;;;55.60;9.98;;;13.20;99.90;;;12.59;100.00;100436.63;4154850;28;20392;-62
2024/04/04 05:06:18;;;;;;;54.58;10.77;;;13.20;99.90;;;12.59;100.00;100450.69;4154599;28;20037;-62
2024/04/04 05:08:19;;;;;;;50.55;9.63;;;13.20;99.90;;;12.59;100.00;100447.22;4154668;28;20022;-62
2024/04/04 05:10:20;;;;;;;56.80;11.27;;;13.20;99.90;;;12.55;100.00;100453.84;4169498;28;20399;-62
2024/04/04 05:12:21;;;;;;;53.05;10.00;;;13.20;99.90;;;12.57;100.00;100457.94;4154726;28;20029;-62
2024/04/04 05:14:22;;;;;;;44.03;11.00;;;13.20;99.90;;;12.54;100.00;100460.97;4154554;28;20034;-62
2024/04/04 05:16:23;;;;;;;42.35;9.32;;;13.20;99.90;;;12.54;100.00;100457.50;4154146;28;20037;-61
2024/04/04 05:18:24;;;;;;;51.47;10.63;;;13.20;99.90;;;12.53;100.00;100458.50;4153806;28;20084;-62
2024/04/04 05:20:25;;;;;;;50.88;10.43;;;13.10;99.90;;;12.54;100.00;100457.50;4164776;28;20025;-61
2024/04/04 05:22:29;;;;;;;72.30;10.32;;;13.10;99.90;;;12.54;100.00;100457.50;4154413;28;20067;-62
2024/04/04 05:24:30;;;;;;;55.67;10.05;;;13.10;99.90;;;12.53;100.00;100451.38;4154272;28;20060;-62
2024/04/04 05:26:31;;;;;;;49.88;9.90;;;13.20;99.90;;;12.55;100.00;100461.78;4154326;28;20436;-62
2024/04/04 05:28:34;;;;;;;52.30;9.07;;;13.10;99.90;;;12.55;100.00;100462.59;4154531;28;20030;-61
2024/04/04 05:30:35;;;;;;;67.15;12.02;;;13.20;99.90;;;12.60;100.00;100460.25;4160283;28;20496;-62
2024/04/04 05:32:39;;;;;;;56.50;8.75;;;13.10;99.90;;;12.53;100.00;100456.69;4154092;28;20025;-61
2024/04/04 05:34:40;;;;;;;51.33;10.05;;;13.20;99.90;;;12.54;100.00;100471.56;4154134;28;20113;-62
2024/04/04 05:36:41;;;;;;;50.45;9.25;;;13.10;99.90;;;12.55;100.00;100461.78;4154291;28;20033;-62
2024/04/04 05:38:42;;;;;;;59.88;9.75;;;13.10;99.90;;;12.56;100.00;100466.09;4154193;28;20022;-62
2024/04/04 05:40:42;;;;;;;61.17;12.52;;;13.20;99.90;;;12.57;100.00;100465.09;4166352;28;20022;-61
2024/04/04 05:42:43;;;;;;;65.50;10.68;;;13.20;99.90;;;12.53;100.00;100477.84;4170332;28;20025;-62
2024/04/04 05:44:44;;;;;;;58.72;11.65;;;13.10;99.90;;;12.54;100.00;100465.44;4170234;28;20381;-61
2024/04/04 05:46:46;;;;;;;43.90;9.50;;;13.20;99.90;;;12.53;100.00;100469.06;4170330;28;20484;-62
2024/04/04 05:48:47;;;;;;;53.40;10.05;;;13.20;99.90;;;12.53;100.00;100467.25;4170447;28;20051;-62
2024/04/04 05:50:48;;;;;;;55.35;11.40;;;13.10;99.90;;;12.52;100.00;100481.47;4177055;28;20025;-62
2024/04/04 05:52:49;;;;;;;59.83;11.77;;;13.10;99.90;;;12.56;100.00;100474.84;4153921;28;20082;-61
2024/04/04 05:54:53;;;;;;;50.10;10.02;;;13.20;99.90;;;12.56;100.00;100480.16;4153937;28;20026;-62
2024/04/04 05:56:54;;;;;;;44.92;8.90;;;13.10;99.90;;;12.55;100.00;100477.66;4166019;28;20072;-62
2024/04/04 05:58:55;;;;;;;58.35;12.40;;;13.10;99.90;;;12.53;100.00;100463.78;4185295;28;20021;-62
2024/04/04 06:00:55;;;;;;;56.65;10.20;;;13.20;99.90;;;12.50;100.00;100474.72;4163164;28;20562;-62
2024/04/04 06:02:56;;;;;;;45.97;9.35;;;13.10;99.90;;;12.55;100.00;100469.72;4153734;28;20512;-62
2024/04/04 06:04:57;;;;;;;57.00;9.90;;;13.10;99.90;;;12.53;100.00;100490.25;4163495;28;20030;-61
2024/04/04 06:06:58;;;;;;;60.47;10.40;;;13.10;99.90;;;12.52;100.00;100484.13;4170003;28;20028;-62
2024/04/04 06:08:59;;;;;;;55.15;10.73;;;13.10;99.90;;;12.59;100.00;100473.66;4170115;28;20029;-62
2024/04/04 06:11:00;;;;;;;58.22;10.30;;;13.20;99.90;;;12.63;100.00;100483.72;4168364;28;20084;-62
2024/04/04 06:13:01;;;;;;;56.00;10.13;;;13.20;99.90;;;12.61;100.00;100474.31;4153554;28;20029;-62
2024/04/04 06:15:02;;;;;;;50.08;10.48;;;13.20;99.90;;;12.64;100.00;100476.59;4153057;28;20041;-62
2024/04/04 06:17:03;;;;;;;52.85;10.95;;;13.20;99.90;;;12.62;100.00;100483.91;4153677;28;20018;-61
2024/04/04 06:19:04;;;;;;;53.80;9.63;;;13.20;99.90;;;12.64;100.00;100484.53;4153579;28;20083;-62
2024/04/04 06:21:04;;;;;;;56.95;10.95;;;13.20;99.90;;;12.67;100.00;100481.53;4160279;28;20017;-61
2024/04/04 06:23:05;;;;;;;56.88;10.82;;;13.20;99.90;;;12.67;100.00;100492.13;4140008;28;20062;-62
2024/04/04 06:25:06;;;;;;;54.22;12.25;;;13.30;99.90;;;12.73;100.00;100494.91;4137363;28;20026;-62
2024/04/04 06:27:07;;;;;;;56.42;9.88;;;13.30;99.90;;;12.71;100.00;100496.91;4137279;28;20061;-61
2024/04/04 06:29:08;;;;;;;47.00;8.95;;;13.30;99.90;;;12.74;100.00;100501.03;4137129;28;20030;-61
2024/04/04 06:31:09;;;;;;;52.42;9.30;;;13.30;99.90;;;12.74;100.00;100493.09;4138292;28;20034;-62
2024/04/04 06:33:10;;;;;;;50.45;10.85;;;13.40;99.90;;;12.80;100.00;100510.91;4163075;28;20029;-62
2024/04/04 06:35:11;;;;;;;44.08;7.97;;;13.40;99.90;;;12.78;100.00;100510.28;4136867;28;20069;-62
2024/04/04 06:37:16;;;;;;;49.72;8.32;;;13.40;99.90;;;12.78;100.00;100515.56;4137046;28;20029;-62
2024/04/04 06:39:17;;;;;;;60.60;10.85;;;13.40;99.90;;;12.81;100.00;100506.44;4136964;28;20022;-62
2024/04/04 06:41:18;;;;;;;52.33;9.85;;;13.40;99.90;;;12.75;100.00;100521.22;4131906;28;20033;-62
2024/04/04 06:43:19;;;;;;;49.60;10.50;;;13.30;99.90;;;12.77;100.00;100516.56;4120910;28;20034;-62
2024/04/04 06:45:19;;;;;;;59.67;10.73;;;13.40;99.90;;;12.78;100.00;100531.44;4120654;28;20034;-61
2024/04/04 06:47:20;;;;;;;49.75;12.30;;;13.40;99.90;;;12.78;100.00;100526.94;4121111;28;20043;-62
2024/04/04 06:49:21;;;;;;;55.92;11.15;;;13.40;99.90;;;12.80;100.00;100534.75;4136912;28;20030;-61
2024/04/04 06:51:23;;;;;;;56.33;12.65;;;13.40;99.90;;;12.85;100.00;100537.69;4154501;28;20037;-60
2024/04/04 06:53:23;;;;;;;55.03;10.70;;;13.40;99.90;;;12.85;100.00;100531.56;4142627;28;20042;-60
2024/04/04 06:55:24;;;;;;;60.80;11.15;;;13.40;99.90;;;12.82;100.00;100532.72;4137063;28;20027;-60
2024/04/04 06:57:25;;;;;;;43.67;10.38;;;13.40;99.90;;;12.85;100.00;100540.31;4136775;28;20401;-60
2024/04/04 06:59:26;;;;;;;50.55;9.25;;;13.40;99.90;;;12.86;100.00;100539.34;4136824;28;20018;-60
2024/04/04 07:01:29;;;;;;;46.58;9.07;;;13.50;99.90;;;12.87;100.00;100546.28;4136419;28;20033;-62
2024/04/04 07:03:29;;;;;;;45.90;9.85;;;13.40;99.90;;;12.93;100.00;100542.91;4136630;28;20525;-63
2024/04/04 07:05:30;;;;;;;57.25;11.15;;;13.50;99.90;;;12.90;100.00;100535.34;4142933;28;20031;-63
2024/04/04 07:07:31;;;;;;;59.95;11.43;;;13.60;99.90;;;12.95;100.00;100548.88;4136509;28;20401;-63
2024/04/04 07:09:32;;;;;;;52.97;10.60;;;13.60;99.90;;;13.08;100.00;100548.31;4136546;28;20109;-63
2024/04/04 07:11:34;;;;;;;51.50;10.15;;;13.60;99.90;;;13.12;100.00;100550.44;4136302;28;20489;-63
2024/04/04 07:13:39;;;;;;;48.40;9.05;;;13.70;99.90;;;13.12;100.00;100550.44;4136456;28;20026;-63
2024/04/04 07:15:40;;;;;;;42.15;9.15;;;13.70;99.90;;;13.12;100.00;100554.91;4136242;28;20029;-64
2024/04/04 07:17:41;;;;;;;39.85;9.50;;;13.70;99.90;;;13.08;100.00;100549.13;4136372;28;20026;-59
2024/04/04 07:19:42;;;;;;;55.95;9.63;;;13.70;99.90;;;13.10;100.00;100563.03;4136292;28;20374;-60
2024/04/04 07:21:43;;;;;;;50.35;8.68;;;13.70;99.90;;;13.12;100.00;100565.47;4138140;28;20037;-59
2024/04/04 07:23:44;;;;;;;54.13;11.52;;;13.70;99.90;;;13.02;100.00;100565.69;4136425;28;20026;-59
2024/04/04 07:25:51;;;;;;;52.70;9.93;;;13.70;99.90;;;13.03;100.00;100551.44;4136379;28;20030;-70
2024/04/04 07:27:52;;;;;;;45.88;9.27;;;13.70;99.90;;;13.06;100.00;100568.81;4136079;28;20023;-59
2024/04/04 07:29:55;;;;;;;52.85;8.77;;;13.70;99.90;;;13.12;100.00;100576.91;4136247;28;20026;-59
2024/04/04 07:31:56;;;;;;;48.97;10.27;;;13.70;99.90;;;13.16;100.00;100566.78;4141144;28;20105;-59
2024/04/04 07:33:57;;;;;;;52.63;8.50;;;13.80;99.90;;;13.23;100.00;100573.84;4136195;28;20049;-59
2024/04/04 07:35:58;;;;;;;37.45;8.43;;;13.90;99.90;;;13.41;100.00;100576.19;4136042;28;20030;-59
2024/04/04 07:37:58;;;;;;;44.33;8.63;;;13.90;99.90;;;13.38;100.00;100579.19;4151064;28;20096;-59
2024/04/04 07:39:59;;;;;;;45.63;7.85;;;14.00;99.90;;;13.37;100.00;100574.06;4136520;28;20022;-59
2024/04/04 07:42:00;;;;;;;46.17;9.18;;;13.90;99.90;;;13.35;100.00;100581.38;4138394;28;20038;-59
2024/04/04 07:44:02;;;;;;;55.28;9.38;;;13.90;99.90;;;13.37;100.00;100576.72;4136159;28;20054;-59
2024/04/04 07:46:06;;;;;;;53.83;11.07;;;14.00;99.90;;;13.47;100.00;100591.38;4135738;28;20038;-60
2024/04/04 07:48:10;;;;;;;43.85;8.48;;;14.00;99.90;;;13.49;100.00;100585.91;4136125;28;20046;-59
2024/04/04 07:50:14;;;;;;;40.55;8.90;;;14.10;99.90;;;13.54;100.00;100579.06;4135983;28;20041;-59
2024/04/04 07:52:16;;;;;;;59.15;10.05;;;14.10;99.90;;;13.54;100.00;100583.53;4136473;28;20034;-59
2024/04/04 07:54:17;;;;;;;47.58;10.10;;;14.20;99.90;;;13.54;100.00;100588.84;4136562;28;20509;-59
2024/04/04 07:56:17;;;;;;;41.55;10.20;;;14.10;99.90;;;13.53;100.00;100587.22;4136068;28;20031;-59
2024/04/04 07:58:18;;;;;;;53.15;10.38;;;14.10;99.90;;;13.50;100.00;100595.50;4135998;28;20058;-60
2024/04/04 08:00:21;;;;;;;52.53;9.77;;;14.20;99.90;;;13.62;100.00;100594.88;4134389;28;20027;-59
2024/04/04 08:02:23;;;;;;;46.45;9.43;;;14.20;99.90;;;13.80;100.00;100605.16;4147116;28;20038;-59
2024/04/04 08:04:24;;;;;;;45.90;8.48;;;14.30;99.90;;;13.90;100.00;100603.09;4136042;28;20034;-59
2024/04/04 08:06:25;;;;;;;50.67;9.75;;;14.40;99.90;;;13.96;100.00;100597.06;4135783;28;20030;-59
2024/04/04 08:08:26;;;;;;;51.72;10.02;;;14.50;99.90;;;14.01;100.00;100607.94;4135790;28;20023;-59
2024/04/04 08:10:27;;;;;;;50.72;8.48;;;14.50;99.90;;;13.96;100.00;100607.66;4135926;28;20058;-59
2024/04/04 08:12:27;;;;;;;53.58;10.68;;;14.60;99.90;;;14.07;100.00;100612.50;4144781;28;20069;-59